sensor_id;sensor_type;location;lat;lon;timestamp;P1;durP1;ratioP1;P2;durP2;ratioP2
803;SDS011;25687;49.976;8.240;2023-09-12T00:00:44;15.43;;;9.53;;
803;SDS011;25687;49.976;8.240;2023-09-12T00:03:09;14.30;;;9.00;;
803;SDS011;25687;49.976;8.240;2023-09-12T00:05:34;18.23;;;9.23;;
803;SDS011;25687;49.976;8.240;2023-09-12T00:07:59;14.77;;;8.83;;
803;SDS011;25687;49.976;8.240;2023-09-12T00:10:25;11.90;;;8.60;;
803;SDS011;25687;49.976;8.240;2023-09-12T00:12:50;14.70;;;9.07;;
803;SDS011;25687;49.976;8.240;2023-09-12T00:15:15;16.40;;;8.87;;
803;SDS011;25687;49.976;8.240;2023-09-12T00:17:41;16.30;;;9.17;;
803;SDS011;25687;49.976;8.240;2023-09-12T00:20:06;12.20;;;8.60;;
803;SDS011;25687;49.976;8.240;2023-09-12T00:22:33;11.13;;;8.90;;
803;SDS011;25687;49.976;8.240;2023-09-12T00:24:58;15.27;;;8.53;;
803;SDS011;25687;49.976;8.240;2023-09-12T00:27:23;15.97;;;9.23;;
803;SDS011;25687;49.976;8.240;2023-09-12T00:29:49;14.67;;;9.33;;
803;SDS011;25687;49.976;8.240;2023-09-12T00:32:14;16.43;;;9.07;;
803;SDS011;25687;49.976;8.240;2023-09-12T00:34:39;14.83;;;8.93;;
803;SDS011;25687;49.976;8.240;2023-09-12T00:37:04;14.30;;;9.57;;
803;SDS011;25687;49.976;8.240;2023-09-12T00:39:30;17.63;;;9.33;;
803;SDS011;25687;49.976;8.240;2023-09-12T00:41:55;14.90;;;9.33;;
803;SDS011;25687;49.976;8.240;2023-09-12T00:44:20;14.90;;;9.60;;
803;SDS011;25687;49.976;8.240;2023-09-12T00:46:46;18.77;;;9.17;;
803;SDS011;25687;49.976;8.240;2023-09-12T00:49:14;12.83;;;9.10;;
803;SDS011;25687;49.976;8.240;2023-09-12T00:51:41;16.37;;;10.77;;
803;SDS011;25687;49.976;8.240;2023-09-12T00:54:08;15.93;;;9.27;;
803;SDS011;25687;49.976;8.240;2023-09-12T00:56:33;13.97;;;9.20;;
803;SDS011;25687;49.976;8.240;2023-09-12T00:58:59;14.00;;;10.20;;
803;SDS011;25687;49.976;8.240;2023-09-12T01:01:25;15.60;;;9.10;;
803;SDS011;25687;49.976;8.240;2023-09-12T01:03:51;10.60;;;9.07;;
803;SDS011;25687;49.976;8.240;2023-09-12T01:06:17;19.77;;;9.73;;
803;SDS011;25687;49.976;8.240;2023-09-12T01:08:46;19.47;;;9.87;;
803;SDS011;25687;49.976;8.240;2023-09-12T01:11:13;17.37;;;9.87;;
803;SDS011;25687;49.976;8.240;2023-09-12T01:13:39;15.00;;;9.73;;
803;SDS011;25687;49.976;8.240;2023-09-12T01:16:04;17.97;;;9.40;;
803;SDS011;25687;49.976;8.240;2023-09-12T01:18:31;16.90;;;10.23;;
803;SDS011;25687;49.976;8.240;2023-09-12T01:21:15;18.00;;;9.57;;
803;SDS011;25687;49.976;8.240;2023-09-12T01:24:15;16.40;;;9.17;;
803;SDS011;25687;49.976;8.240;2023-09-12T01:29:32;15.53;;;9.77;;
803;SDS011;25687;49.976;8.240;2023-09-12T01:31:59;16.93;;;9.90;;
803;SDS011;25687;49.976;8.240;2023-09-12T01:34:26;16.57;;;10.13;;
803;SDS011;25687;49.976;8.240;2023-09-12T01:36:51;16.67;;;10.53;;
803;SDS011;25687;49.976;8.240;2023-09-12T01:39:16;21.13;;;10.10;;
803;SDS011;25687;49.976;8.240;2023-09-12T01:41:42;16.57;;;9.90;;
803;SDS011;25687;49.976;8.240;2023-09-12T01:44:11;16.27;;;11.23;;
803;SDS011;25687;49.976;8.240;2023-09-12T01:46:36;15.50;;;10.87;;
803;SDS011;25687;49.976;8.240;2023-09-12T01:49:02;19.73;;;11.20;;
803;SDS011;25687;49.976;8.240;2023-09-12T01:51:30;19.13;;;10.70;;
803;SDS011;25687;49.976;8.240;2023-09-12T01:53:55;18.10;;;10.97;;
803;SDS011;25687;49.976;8.240;2023-09-12T01:56:23;17.37;;;11.33;;
803;SDS011;25687;49.976;8.240;2023-09-12T01:58:48;17.73;;;10.93;;
803;SDS011;25687;49.976;8.240;2023-09-12T02:01:14;20.70;;;11.57;;
803;SDS011;25687;49.976;8.240;2023-09-12T02:03:39;17.00;;;10.67;;
803;SDS011;25687;49.976;8.240;2023-09-12T02:06:04;18.30;;;10.93;;
803;SDS011;25687;49.976;8.240;2023-09-12T02:08:30;14.47;;;10.67;;
803;SDS011;25687;49.976;8.240;2023-09-12T02:10:55;18.63;;;11.20;;
803;SDS011;25687;49.976;8.240;2023-09-12T02:13:20;17.70;;;10.10;;
803;SDS011;25687;49.976;8.240;2023-09-12T02:15:45;17.93;;;10.43;;
803;SDS011;25687;49.976;8.240;2023-09-12T02:18:11;17.23;;;9.73;;
803;SDS011;25687;49.976;8.240;2023-09-12T02:20:38;14.87;;;10.00;;
803;SDS011;25687;49.976;8.240;2023-09-12T02:23:04;18.87;;;9.97;;
803;SDS011;25687;49.976;8.240;2023-09-12T02:25:29;12.30;;;9.77;;
803;SDS011;25687;49.976;8.240;2023-09-12T02:27:55;19.43;;;11.43;;
803;SDS011;25687;49.976;8.240;2023-09-12T02:30:20;16.77;;;10.37;;
803;SDS011;25687;49.976;8.240;2023-09-12T02:32:45;17.70;;;10.10;;
803;SDS011;25687;49.976;8.240;2023-09-12T02:35:10;13.73;;;9.90;;
803;SDS011;25687;49.976;8.240;2023-09-12T02:37:36;18.63;;;10.17;;
803;SDS011;25687;49.976;8.240;2023-09-12T02:40:01;19.03;;;11.03;;
803;SDS011;25687;49.976;8.240;2023-09-12T02:42:28;16.77;;;10.67;;
803;SDS011;25687;49.976;8.240;2023-09-12T02:44:54;16.20;;;10.80;;
803;SDS011;25687;49.976;8.240;2023-09-12T02:47:19;17.10;;;10.93;;
803;SDS011;25687;49.976;8.240;2023-09-12T02:49:44;18.43;;;10.57;;
803;SDS011;25687;49.976;8.240;2023-09-12T02:52:09;14.00;;;10.57;;
803;SDS011;25687;49.976;8.240;2023-09-12T02:54:35;17.73;;;10.80;;
803;SDS011;25687;49.976;8.240;2023-09-12T02:57:00;21.53;;;10.57;;
803;SDS011;25687;49.976;8.240;2023-09-12T02:59:25;16.77;;;9.87;;
803;SDS011;25687;49.976;8.240;2023-09-12T03:01:51;14.60;;;10.60;;
803;SDS011;25687;49.976;8.240;2023-09-12T03:04:16;19.53;;;10.53;;
803;SDS011;25687;49.976;8.240;2023-09-12T03:06:41;15.97;;;10.57;;
803;SDS011;25687;49.976;8.240;2023-09-12T03:09:06;15.17;;;9.93;;
803;SDS011;25687;49.976;8.240;2023-09-12T03:11:32;17.47;;;10.77;;
803;SDS011;25687;49.976;8.240;2023-09-12T03:13:57;18.47;;;10.63;;
803;SDS011;25687;49.976;8.240;2023-09-12T03:16:22;20.57;;;10.67;;
803;SDS011;25687;49.976;8.240;2023-09-12T03:18:49;21.73;;;10.10;;
803;SDS011;25687;49.976;8.240;2023-09-12T03:21:14;17.07;;;10.40;;
803;SDS011;25687;49.976;8.240;2023-09-12T03:23:40;14.60;;;10.33;;
803;SDS011;25687;49.976;8.240;2023-09-12T03:26:05;14.23;;;9.50;;
803;SDS011;25687;49.976;8.240;2023-09-12T03:28:31;19.33;;;10.27;;
803;SDS011;25687;49.976;8.240;2023-09-12T03:31:09;19.43;;;9.63;;
803;SDS011;25687;49.976;8.240;2023-09-12T03:33:39;21.90;;;10.10;;
803;SDS011;25687;49.976;8.240;2023-09-12T03:36:05;16.10;;;10.17;;
803;SDS011;25687;49.976;8.240;2023-09-12T03:38:32;15.07;;;9.53;;
803;SDS011;25687;49.976;8.240;2023-09-12T03:40:58;15.83;;;9.97;;
803;SDS011;25687;49.976;8.240;2023-09-12T03:43:23;15.80;;;10.03;;
803;SDS011;25687;49.976;8.240;2023-09-12T03:45:48;15.60;;;10.27;;
803;SDS011;25687;49.976;8.240;2023-09-12T03:48:14;13.97;;;9.37;;
803;SDS011;25687;49.976;8.240;2023-09-12T03:50:39;14.40;;;9.97;;
803;SDS011;25687;49.976;8.240;2023-09-12T03:53:04;14.73;;;9.17;;
803;SDS011;25687;49.976;8.240;2023-09-12T03:55:30;15.40;;;10.10;;
803;SDS011;25687;49.976;8.240;2023-09-12T03:57:55;19.43;;;9.93;;
803;SDS011;25687;49.976;8.240;2023-09-12T04:00:21;18.43;;;10.37;;
803;SDS011;25687;49.976;8.240;2023-09-12T04:02:46;18.93;;;10.33;;
803;SDS011;25687;49.976;8.240;2023-09-12T04:05:12;15.87;;;9.87;;
803;SDS011;25687;49.976;8.240;2023-09-12T04:07:37;17.30;;;10.63;;
803;SDS011;25687;49.976;8.240;2023-09-12T04:10:02;18.13;;;10.50;;
803;SDS011;25687;49.976;8.240;2023-09-12T04:12:28;15.57;;;9.77;;
803;SDS011;25687;49.976;8.240;2023-09-12T04:14:53;19.43;;;10.20;;
803;SDS011;25687;49.976;8.240;2023-09-12T04:17:20;22.50;;;9.97;;
803;SDS011;25687;49.976;8.240;2023-09-12T04:19:45;26.10;;;10.67;;
803;SDS011;25687;49.976;8.240;2023-09-12T04:22:10;20.13;;;10.87;;
803;SDS011;25687;49.976;8.240;2023-09-12T04:24:35;14.30;;;9.73;;
803;SDS011;25687;49.976;8.240;2023-09-12T04:27:01;22.80;;;10.70;;
803;SDS011;25687;49.976;8.240;2023-09-12T04:29:26;21.30;;;10.27;;
803;SDS011;25687;49.976;8.240;2023-09-12T04:31:52;17.50;;;11.27;;
803;SDS011;25687;49.976;8.240;2023-09-12T04:34:23;18.63;;;10.43;;
803;SDS011;25687;49.976;8.240;2023-09-12T04:36:49;15.60;;;9.10;;
803;SDS011;25687;49.976;8.240;2023-09-12T04:39:14;18.43;;;9.73;;
803;SDS011;25687;49.976;8.240;2023-09-12T04:41:40;14.57;;;9.80;;
803;SDS011;25687;49.976;8.240;2023-09-12T04:44:05;20.83;;;9.87;;
803;SDS011;25687;49.976;8.240;2023-09-12T04:46:30;16.93;;;10.07;;
803;SDS011;25687;49.976;8.240;2023-09-12T04:48:55;19.87;;;11.40;;
803;SDS011;25687;49.976;8.240;2023-09-12T04:51:21;18.53;;;9.70;;
803;SDS011;25687;49.976;8.240;2023-09-12T04:53:46;17.73;;;10.10;;
803;SDS011;25687;49.976;8.240;2023-09-12T04:56:16;14.27;;;9.40;;
803;SDS011;25687;49.976;8.240;2023-09-12T04:58:42;19.80;;;9.63;;
803;SDS011;25687;49.976;8.240;2023-09-12T05:01:07;17.57;;;9.60;;
803;SDS011;25687;49.976;8.240;2023-09-12T05:03:32;21.50;;;10.60;;
803;SDS011;25687;49.976;8.240;2023-09-12T05:05:58;19.73;;;11.77;;
803;SDS011;25687;49.976;8.240;2023-09-12T05:08:24;20.33;;;11.03;;
803;SDS011;25687;49.976;8.240;2023-09-12T05:10:49;16.80;;;10.00;;
803;SDS011;25687;49.976;8.240;2023-09-12T05:13:15;19.43;;;10.73;;
803;SDS011;25687;49.976;8.240;2023-09-12T05:15:40;14.63;;;10.10;;
803;SDS011;25687;49.976;8.240;2023-09-12T05:18:06;20.63;;;10.60;;
803;SDS011;25687;49.976;8.240;2023-09-12T05:20:32;14.40;;;9.57;;
803;SDS011;25687;49.976;8.240;2023-09-12T05:22:58;18.60;;;10.43;;
803;SDS011;25687;49.976;8.240;2023-09-12T05:25:23;18.00;;;9.80;;
803;SDS011;25687;49.976;8.240;2023-09-12T05:27:48;22.63;;;11.20;;
803;SDS011;25687;49.976;8.240;2023-09-12T05:30:14;17.70;;;9.80;;
803;SDS011;25687;49.976;8.240;2023-09-12T05:32:40;16.93;;;10.30;;
803;SDS011;25687;49.976;8.240;2023-09-12T05:35:06;18.37;;;10.80;;
803;SDS011;25687;49.976;8.240;2023-09-12T05:37:32;21.37;;;10.67;;
803;SDS011;25687;49.976;8.240;2023-09-12T05:39:57;20.37;;;11.37;;
803;SDS011;25687;49.976;8.240;2023-09-12T05:42:22;23.57;;;11.70;;
803;SDS011;25687;49.976;8.240;2023-09-12T05:44:48;15.13;;;10.77;;
803;SDS011;25687;49.976;8.240;2023-09-12T05:47:14;19.67;;;10.80;;
803;SDS011;25687;49.976;8.240;2023-09-12T05:49:40;25.80;;;11.70;;
803;SDS011;25687;49.976;8.240;2023-09-12T05:52:05;20.23;;;10.43;;
803;SDS011;25687;49.976;8.240;2023-09-12T05:54:30;23.37;;;11.70;;
803;SDS011;25687;49.976;8.240;2023-09-12T05:56:56;22.63;;;11.30;;
803;SDS011;25687;49.976;8.240;2023-09-12T05:59:21;27.13;;;11.90;;
803;SDS011;25687;49.976;8.240;2023-09-12T06:01:46;22.43;;;10.93;;
803;SDS011;25687;49.976;8.240;2023-09-12T06:04:13;20.23;;;10.67;;
803;SDS011;25687;49.976;8.240;2023-09-12T06:06:39;24.97;;;11.17;;
803;SDS011;25687;49.976;8.240;2023-09-12T06:09:04;20.70;;;10.73;;
803;SDS011;25687;49.976;8.240;2023-09-12T06:11:30;21.63;;;11.53;;
803;SDS011;25687;49.976;8.240;2023-09-12T06:13:56;21.30;;;10.70;;
803;SDS011;25687;49.976;8.240;2023-09-12T06:16:22;26.53;;;10.97;;
803;SDS011;25687;49.976;8.240;2023-09-12T06:18:47;21.73;;;11.77;;
803;SDS011;25687;49.976;8.240;2023-09-12T06:21:13;22.07;;;10.20;;
803;SDS011;25687;49.976;8.240;2023-09-12T06:23:39;20.97;;;10.67;;
803;SDS011;25687;49.976;8.240;2023-09-12T06:26:04;20.67;;;10.67;;
803;SDS011;25687;49.976;8.240;2023-09-12T06:28:30;20.27;;;10.10;;
803;SDS011;25687;49.976;8.240;2023-09-12T06:30:55;23.47;;;11.13;;
803;SDS011;25687;49.976;8.240;2023-09-12T06:33:24;25.07;;;10.80;;
803;SDS011;25687;49.976;8.240;2023-09-12T06:35:51;22.23;;;9.90;;
803;SDS011;25687;49.976;8.240;2023-09-12T06:38:17;20.13;;;9.90;;
803;SDS011;25687;49.976;8.240;2023-09-12T06:40:43;15.50;;;9.60;;
803;SDS011;25687;49.976;8.240;2023-09-12T06:43:09;21.87;;;10.03;;
803;SDS011;25687;49.976;8.240;2023-09-12T06:45:34;14.70;;;9.63;;
803;SDS011;25687;49.976;8.240;2023-09-12T06:48:02;23.43;;;8.97;;
803;SDS011;25687;49.976;8.240;2023-09-12T06:50:28;20.80;;;8.90;;
803;SDS011;25687;49.976;8.240;2023-09-12T06:52:53;21.60;;;8.77;;
803;SDS011;25687;49.976;8.240;2023-09-12T06:55:19;16.05;;;9.02;;
803;SDS011;25687;49.976;8.240;2023-09-12T06:57:44;16.65;;;8.48;;
803;SDS011;25687;49.976;8.240;2023-09-12T07:00:11;23.13;;;8.35;;
803;SDS011;25687;49.976;8.240;2023-09-12T07:02:36;20.15;;;8.00;;
803;SDS011;25687;49.976;8.240;2023-09-12T07:05:02;16.50;;;7.90;;
803;SDS011;25687;49.976;8.240;2023-09-12T07:07:28;17.27;;;7.50;;
803;SDS011;25687;49.976;8.240;2023-09-12T07:09:54;13.90;;;6.75;;
803;SDS011;25687;49.976;8.240;2023-09-12T07:12:19;16.95;;;7.55;;
803;SDS011;25687;49.976;8.240;2023-09-12T07:14:44;18.55;;;6.90;;
803;SDS011;25687;49.976;8.240;2023-09-12T07:17:09;11.38;;;7.28;;
803;SDS011;25687;49.976;8.240;2023-09-12T07:19:35;17.85;;;7.57;;
803;SDS011;25687;49.976;8.240;2023-09-12T07:22:00;23.10;;;7.75;;
803;SDS011;25687;49.976;8.240;2023-09-12T07:24:26;21.65;;;7.95;;
803;SDS011;25687;49.976;8.240;2023-09-12T07:26:52;15.10;;;7.15;;
803;SDS011;25687;49.976;8.240;2023-09-12T07:29:18;14.35;;;6.93;;
803;SDS011;25687;49.976;8.240;2023-09-12T07:31:43;16.08;;;6.97;;
803;SDS011;25687;49.976;8.240;2023-09-12T07:34:09;16.58;;;7.03;;
803;SDS011;25687;49.976;8.240;2023-09-12T07:36:35;17.85;;;7.22;;
803;SDS011;25687;49.976;8.240;2023-09-12T07:39:00;20.85;;;7.85;;
803;SDS011;25687;49.976;8.240;2023-09-12T07:41:25;20.40;;;6.88;;
803;SDS011;25687;49.976;8.240;2023-09-12T07:43:51;22.70;;;7.90;;
803;SDS011;25687;49.976;8.240;2023-09-12T07:46:16;16.73;;;7.05;;
803;SDS011;25687;49.976;8.240;2023-09-12T07:48:41;20.13;;;7.13;;
803;SDS011;25687;49.976;8.240;2023-09-12T07:51:13;21.38;;;7.22;;
803;SDS011;25687;49.976;8.240;2023-09-12T07:53:40;18.23;;;6.90;;
803;SDS011;25687;49.976;8.240;2023-09-12T07:56:05;19.00;;;6.28;;
803;SDS011;25687;49.976;8.240;2023-09-12T07:58:31;17.63;;;7.35;;
803;SDS011;25687;49.976;8.240;2023-09-12T08:00:56;26.85;;;7.32;;
803;SDS011;25687;49.976;8.240;2023-09-12T08:03:21;17.17;;;6.53;;
803;SDS011;25687;49.976;8.240;2023-09-12T08:05:56;21.50;;;7.60;;
803;SDS011;25687;49.976;8.240;2023-09-12T08:08:22;14.60;;;7.32;;
803;SDS011;25687;49.976;8.240;2023-09-12T08:10:48;19.35;;;6.97;;
803;SDS011;25687;49.976;8.240;2023-09-12T08:13:14;20.92;;;6.75;;
803;SDS011;25687;49.976;8.240;2023-09-12T08:15:39;13.65;;;6.07;;
803;SDS011;25687;49.976;8.240;2023-09-12T08:18:04;16.35;;;6.35;;
803;SDS011;25687;49.976;8.240;2023-09-12T08:20:30;19.58;;;6.68;;
803;SDS011;25687;49.976;8.240;2023-09-12T08:22:55;14.70;;;7.18;;
803;SDS011;25687;49.976;8.240;2023-09-12T08:25:20;19.33;;;8.05;;
803;SDS011;25687;49.976;8.240;2023-09-12T08:27:45;16.27;;;6.78;;
803;SDS011;25687;49.976;8.240;2023-09-12T08:30:11;20.08;;;8.25;;
803;SDS011;25687;49.976;8.240;2023-09-12T08:32:38;14.13;;;6.30;;
803;SDS011;25687;49.976;8.240;2023-09-12T08:35:08;16.27;;;6.68;;
803;SDS011;25687;49.976;8.240;2023-09-12T08:37:40;22.00;;;6.97;;
803;SDS011;25687;49.976;8.240;2023-09-12T08:40:07;19.73;;;7.55;;
803;SDS011;25687;49.976;8.240;2023-09-12T08:42:36;22.52;;;7.63;;
803;SDS011;25687;49.976;8.240;2023-09-12T08:45:05;16.17;;;7.53;;
803;SDS011;25687;49.976;8.240;2023-09-12T08:47:36;19.67;;;7.10;;
803;SDS011;25687;49.976;8.240;2023-09-12T08:50:05;22.48;;;8.02;;
803;SDS011;25687;49.976;8.240;2023-09-12T08:52:31;17.95;;;7.07;;
803;SDS011;25687;49.976;8.240;2023-09-12T08:54:57;19.73;;;6.82;;
803;SDS011;25687;49.976;8.240;2023-09-12T08:57:23;15.10;;;6.63;;
803;SDS011;25687;49.976;8.240;2023-09-12T08:59:49;18.65;;;7.53;;
803;SDS011;25687;49.976;8.240;2023-09-12T09:02:15;18.58;;;7.43;;
803;SDS011;25687;49.976;8.240;2023-09-12T09:04:41;15.23;;;7.10;;
803;SDS011;25687;49.976;8.240;2023-09-12T09:07:07;24.30;;;7.63;;
803;SDS011;25687;49.976;8.240;2023-09-12T09:09:35;15.77;;;6.47;;
803;SDS011;25687;49.976;8.240;2023-09-12T09:12:00;15.18;;;6.57;;
803;SDS011;25687;49.976;8.240;2023-09-12T09:14:26;17.65;;;6.40;;
803;SDS011;25687;49.976;8.240;2023-09-12T09:16:51;20.63;;;6.57;;
803;SDS011;25687;49.976;8.240;2023-09-12T09:19:16;18.42;;;6.55;;
803;SDS011;25687;49.976;8.240;2023-09-12T09:21:43;25.30;;;6.35;;
803;SDS011;25687;49.976;8.240;2023-09-12T09:24:10;18.92;;;6.65;;
803;SDS011;25687;49.976;8.240;2023-09-12T09:26:44;26.08;;;7.70;;
803;SDS011;25687;49.976;8.240;2023-09-12T09:31:46;16.75;;;6.63;;
803;SDS011;25687;49.976;8.240;2023-09-12T09:34:13;16.90;;;6.30;;
803;SDS011;25687;49.976;8.240;2023-09-12T09:36:56;18.08;;;6.68;;
803;SDS011;25687;49.976;8.240;2023-09-12T09:39:25;21.25;;;6.72;;
803;SDS011;25687;49.976;8.240;2023-09-12T09:41:55;19.88;;;6.45;;
803;SDS011;25687;49.976;8.240;2023-09-12T09:44:22;15.82;;;6.40;;
803;SDS011;25687;49.976;8.240;2023-09-12T09:46:51;13.65;;;6.28;;
803;SDS011;25687;49.976;8.240;2023-09-12T09:49:19;17.73;;;6.55;;
803;SDS011;25687;49.976;8.240;2023-09-12T09:51:46;14.50;;;7.00;;
803;SDS011;25687;49.976;8.240;2023-09-12T09:54:11;15.88;;;6.45;;
803;SDS011;25687;49.976;8.240;2023-09-12T09:56:47;12.48;;;6.15;;
803;SDS011;25687;49.976;8.240;2023-09-12T09:59:17;16.55;;;6.57;;
803;SDS011;25687;49.976;8.240;2023-09-12T10:01:44;19.45;;;6.90;;
803;SDS011;25687;49.976;8.240;2023-09-12T10:04:10;16.52;;;7.03;;
803;SDS011;25687;49.976;8.240;2023-09-12T10:06:36;16.40;;;6.97;;
803;SDS011;25687;49.976;8.240;2023-09-12T10:09:04;13.90;;;6.30;;
803;SDS011;25687;49.976;8.240;2023-09-12T10:11:32;16.60;;;6.20;;
803;SDS011;25687;49.976;8.240;2023-09-12T10:13:59;21.85;;;8.13;;
803;SDS011;25687;49.976;8.240;2023-09-12T10:16:36;14.77;;;6.78;;
803;SDS011;25687;49.976;8.240;2023-09-12T10:19:16;18.55;;;6.68;;
803;SDS011;25687;49.976;8.240;2023-09-12T10:24:32;17.30;;;6.95;;
803;SDS011;25687;49.976;8.240;2023-09-12T10:26:59;12.38;;;6.20;;
803;SDS011;25687;49.976;8.240;2023-09-12T10:29:26;15.95;;;7.00;;
803;SDS011;25687;49.976;8.240;2023-09-12T10:31:52;19.73;;;6.68;;
803;SDS011;25687;49.976;8.240;2023-09-12T10:34:17;13.35;;;6.53;;
803;SDS011;25687;49.976;8.240;2023-09-12T10:36:43;11.32;;;6.25;;
803;SDS011;25687;49.976;8.240;2023-09-12T10:39:10;14.73;;;7.40;;
803;SDS011;25687;49.976;8.240;2023-09-12T10:41:37;15.98;;;7.10;;
803;SDS011;25687;49.976;8.240;2023-09-12T10:44:09;13.02;;;7.65;;
803;SDS011;25687;49.976;8.240;2023-09-12T10:46:37;16.42;;;7.07;;
803;SDS011;25687;49.976;8.240;2023-09-12T10:49:06;16.20;;;8.25;;
803;SDS011;25687;49.976;8.240;2023-09-12T10:51:33;16.63;;;7.57;;
803;SDS011;25687;49.976;8.240;2023-09-12T10:54:02;15.50;;;7.18;;
803;SDS011;25687;49.976;8.240;2023-09-12T10:56:28;18.45;;;8.43;;
803;SDS011;25687;49.976;8.240;2023-09-12T11:01:52;18.08;;;7.70;;
803;SDS011;25687;49.976;8.240;2023-09-12T11:06:52;18.38;;;8.18;;
803;SDS011;25687;49.976;8.240;2023-09-12T11:09:18;11.48;;;6.65;;
803;SDS011;25687;49.976;8.240;2023-09-12T11:11:47;12.20;;;6.93;;
803;SDS011;25687;49.976;8.240;2023-09-12T11:14:14;18.52;;;7.63;;
803;SDS011;25687;49.976;8.240;2023-09-12T11:16:57;10.80;;;7.35;;
803;SDS011;25687;49.976;8.240;2023-09-12T11:19:42;18.75;;;7.30;;
803;SDS011;25687;49.976;8.240;2023-09-12T11:22:22;18.55;;;7.60;;
803;SDS011;25687;49.976;8.240;2023-09-12T11:24:52;15.25;;;7.28;;
803;SDS011;25687;49.976;8.240;2023-09-12T11:27:18;17.30;;;7.72;;
803;SDS011;25687;49.976;8.240;2023-09-12T11:29:44;13.60;;;7.25;;
803;SDS011;25687;49.976;8.240;2023-09-12T11:32:10;20.35;;;7.85;;
803;SDS011;25687;49.976;8.240;2023-09-12T11:34:50;10.82;;;6.88;;
803;SDS011;25687;49.976;8.240;2023-09-12T11:37:23;22.50;;;7.88;;
803;SDS011;25687;49.976;8.240;2023-09-12T11:39:53;16.60;;;7.25;;
803;SDS011;25687;49.976;8.240;2023-09-12T11:42:19;13.15;;;6.85;;
803;SDS011;25687;49.976;8.240;2023-09-12T11:44:47;12.57;;;6.07;;
803;SDS011;25687;49.976;8.240;2023-09-12T11:47:13;11.20;;;6.60;;
803;SDS011;25687;49.976;8.240;2023-09-12T11:49:40;15.80;;;7.35;;
803;SDS011;25687;49.976;8.240;2023-09-12T11:52:09;14.85;;;6.68;;
803;SDS011;25687;49.976;8.240;2023-09-12T11:54:37;16.10;;;7.78;;
803;SDS011;25687;49.976;8.240;2023-09-12T11:57:05;13.85;;;6.55;;
803;SDS011;25687;49.976;8.240;2023-09-12T11:59:32;16.30;;;6.68;;
803;SDS011;25687;49.976;8.240;2023-09-12T12:02:01;9.65;;;7.15;;
803;SDS011;25687;49.976;8.240;2023-09-12T12:04:31;18.00;;;7.15;;
803;SDS011;25687;49.976;8.240;2023-09-12T12:06:57;15.77;;;7.28;;
803;SDS011;25687;49.976;8.240;2023-09-12T12:09:23;16.83;;;7.25;;
803;SDS011;25687;49.976;8.240;2023-09-12T12:11:48;12.45;;;6.80;;
803;SDS011;25687;49.976;8.240;2023-09-12T12:14:14;15.77;;;7.32;;
803;SDS011;25687;49.976;8.240;2023-09-12T12:16:41;16.50;;;6.97;;
803;SDS011;25687;49.976;8.240;2023-09-12T12:19:08;14.32;;;7.35;;
803;SDS011;25687;49.976;8.240;2023-09-12T12:21:37;11.43;;;7.65;;
803;SDS011;25687;49.976;8.240;2023-09-12T12:24:04;13.60;;;7.35;;
803;SDS011;25687;49.976;8.240;2023-09-12T12:26:30;16.98;;;7.07;;
803;SDS011;25687;49.976;8.240;2023-09-12T12:28:55;12.52;;;7.10;;
803;SDS011;25687;49.976;8.240;2023-09-12T12:31:21;13.55;;;6.95;;
803;SDS011;25687;49.976;8.240;2023-09-12T12:33:49;20.15;;;6.85;;
803;SDS011;25687;49.976;8.240;2023-09-12T12:36:18;16.02;;;8.05;;
803;SDS011;25687;49.976;8.240;2023-09-12T12:38:43;12.45;;;6.47;;
803;SDS011;25687;49.976;8.240;2023-09-12T12:41:12;18.55;;;7.43;;
803;SDS011;25687;49.976;8.240;2023-09-12T12:43:41;20.67;;;7.15;;
803;SDS011;25687;49.976;8.240;2023-09-12T12:46:11;19.63;;;7.28;;
803;SDS011;25687;49.976;8.240;2023-09-12T12:48:37;15.23;;;7.18;;
803;SDS011;25687;49.976;8.240;2023-09-12T12:51:16;13.68;;;5.97;;
803;SDS011;25687;49.976;8.240;2023-09-12T12:53:43;18.98;;;6.70;;
803;SDS011;25687;49.976;8.240;2023-09-12T12:56:11;10.57;;;6.97;;
803;SDS011;25687;49.976;8.240;2023-09-12T12:58:39;11.50;;;6.88;;
803;SDS011;25687;49.976;8.240;2023-09-12T13:01:04;18.98;;;7.07;;
803;SDS011;25687;49.976;8.240;2023-09-12T13:03:29;14.43;;;7.80;;
803;SDS011;25687;49.976;8.240;2023-09-12T13:05:56;14.38;;;7.75;;
803;SDS011;25687;49.976;8.240;2023-09-12T13:08:21;14.65;;;7.40;;
803;SDS011;25687;49.976;8.240;2023-09-12T13:10:46;14.13;;;7.82;;
803;SDS011;25687;49.976;8.240;2023-09-12T13:13:11;14.02;;;7.82;;
803;SDS011;25687;49.976;8.240;2023-09-12T13:15:37;15.55;;;7.18;;
803;SDS011;25687;49.976;8.240;2023-09-12T13:18:03;10.32;;;6.88;;
803;SDS011;25687;49.976;8.240;2023-09-12T13:20:29;15.43;;;6.55;;
803;SDS011;25687;49.976;8.240;2023-09-12T13:22:54;14.73;;;7.13;;
803;SDS011;25687;49.976;8.240;2023-09-12T13:25:20;11.32;;;7.18;;
803;SDS011;25687;49.976;8.240;2023-09-12T13:27:48;17.52;;;7.57;;
803;SDS011;25687;49.976;8.240;2023-09-12T13:30:13;15.43;;;7.35;;
803;SDS011;25687;49.976;8.240;2023-09-12T13:32:39;18.20;;;6.65;;
803;SDS011;25687;49.976;8.240;2023-09-12T13:35:04;17.52;;;7.40;;
803;SDS011;25687;49.976;8.240;2023-09-12T13:37:30;16.08;;;6.88;;
803;SDS011;25687;49.976;8.240;2023-09-12T13:39:55;11.00;;;7.07;;
803;SDS011;25687;49.976;8.240;2023-09-12T13:42:21;13.00;;;6.95;;
803;SDS011;25687;49.976;8.240;2023-09-12T13:44:46;14.20;;;6.50;;
803;SDS011;25687;49.976;8.240;2023-09-12T13:47:12;16.38;;;7.35;;
803;SDS011;25687;49.976;8.240;2023-09-12T13:49:37;12.02;;;6.88;;
803;SDS011;25687;49.976;8.240;2023-09-12T13:52:03;13.40;;;6.18;;
803;SDS011;25687;49.976;8.240;2023-09-12T13:54:28;18.33;;;6.13;;
803;SDS011;25687;49.976;8.240;2023-09-12T13:56:53;13.32;;;6.57;;
803;SDS011;25687;49.976;8.240;2023-09-12T13:59:19;10.80;;;6.45;;
803;SDS011;25687;49.976;8.240;2023-09-12T14:01:45;12.77;;;6.20;;
803;SDS011;25687;49.976;8.240;2023-09-12T14:04:11;13.93;;;6.72;;
803;SDS011;25687;49.976;8.240;2023-09-12T14:06:36;11.65;;;6.78;;
803;SDS011;25687;49.976;8.240;2023-09-12T14:09:01;23.83;;;6.80;;
803;SDS011;25687;49.976;8.240;2023-09-12T14:11:27;10.98;;;6.15;;
803;SDS011;25687;49.976;8.240;2023-09-12T14:13:52;16.42;;;6.60;;
803;SDS011;25687;49.976;8.240;2023-09-12T14:16:17;10.45;;;6.35;;
803;SDS011;25687;49.976;8.240;2023-09-12T14:18:42;11.10;;;5.78;;
803;SDS011;25687;49.976;8.240;2023-09-12T14:21:07;13.68;;;6.22;;
803;SDS011;25687;49.976;8.240;2023-09-12T14:23:33;9.85;;;6.53;;
803;SDS011;25687;49.976;8.240;2023-09-12T14:25:58;12.15;;;6.30;;
803;SDS011;25687;49.976;8.240;2023-09-12T14:28:23;9.02;;;6.35;;
803;SDS011;25687;49.976;8.240;2023-09-12T14:30:49;15.38;;;6.60;;
803;SDS011;25687;49.976;8.240;2023-09-12T14:33:15;11.82;;;6.15;;
803;SDS011;25687;49.976;8.240;2023-09-12T14:35:40;9.73;;;5.93;;
803;SDS011;25687;49.976;8.240;2023-09-12T14:38:06;10.75;;;6.90;;
803;SDS011;25687;49.976;8.240;2023-09-12T14:40:32;9.75;;;6.75;;
803;SDS011;25687;49.976;8.240;2023-09-12T14:42:57;13.43;;;7.25;;
803;SDS011;25687;49.976;8.240;2023-09-12T14:45:22;16.80;;;6.60;;
803;SDS011;25687;49.976;8.240;2023-09-12T14:47:50;12.35;;;6.50;;
803;SDS011;25687;49.976;8.240;2023-09-12T14:50:16;12.98;;;7.10;;
803;SDS011;25687;49.976;8.240;2023-09-12T14:52:41;9.30;;;6.35;;
803;SDS011;25687;49.976;8.240;2023-09-12T14:55:07;12.52;;;6.70;;
803;SDS011;25687;49.976;8.240;2023-09-12T14:57:33;15.40;;;6.10;;
803;SDS011;25687;49.976;8.240;2023-09-12T14:59:59;12.82;;;6.65;;
803;SDS011;25687;49.976;8.240;2023-09-12T15:02:25;15.80;;;6.85;;
803;SDS011;25687;49.976;8.240;2023-09-12T15:04:56;15.32;;;6.55;;
803;SDS011;25687;49.976;8.240;2023-09-12T15:07:22;14.52;;;7.38;;